• Join FlightAware (Why Join?)
  • Login
  • US Flag 
07:34AM EDT


 

Airport Tracker/Info


-or-


 

Live Flight TrackerFlight Track Log ✈ SKW6492 ✈ 02-May-2013 ✈ KDEN - KCOD

Flight Track Log - Related Links

Times and Time Zones

All times are in EDT time to prevent confusion due to time zone crossing. See the SKW6492 flight status page for this flight to view local times or setup timezone preferences in your user account.

Time Position Orientation Groundspeed Altitude Reporting Facility
EDT Latitude Longitude Course Direction KTS MPH feet Rate Location/Type
09:37PM 39.9333 -104.6833 346° North 192 221 7,200  Level Denver TRACON
09:38PM 40.0000 -104.6667 11° North 237 273 9,800 2,400 Climbing Denver TRACON
09:39PM 40.2230 -104.7885 347° North  Level FlightAware Approximate
09:39PM 40.0500 -104.6667 360° North 255 293 11,800  Level Denver TRACON
09:40PM 40.3169 -104.8167 346° North  Level FlightAware Approximate
09:40PM 40.1333 -104.6833 351° North 272 313 14,000  Level Denver TRACON
09:41PM 40.4103 -104.8478 346° North  Level FlightAware Approximate
09:41PM 40.2000 -104.7000 349° North 257 296 15,800  Level Denver TRACON
09:42PM 40.5036 -104.8790 346° North  Level FlightAware Approximate
09:42PM 40.3167 -104.7267 350° North 316 364 18,100  Level Denver Center
09:43PM 40.4047 -104.7511 348° North 321 369 19,300 1,320 Climbing Denver Center
09:44PM 40.5022 -104.7758 349° North 330 380 20,900 1,320 Climbing Denver Center
09:45PM 40.5919 -104.8014 348° North 333 383 22,100 1,140 Climbing Denver Center
09:46PM 40.6933 -104.8278 349° North 340 391 23,300 1,080 Climbing Denver Center
09:47PM 40.7925 -104.8550 348° North 339 390 24,400 1,020 Climbing Denver Center
09:48PM 40.8850 -104.8992 340° North 348 400 25,500 900 Climbing Denver Center
09:49PM 40.9764 -104.9461 339° North 350 403 26,300 600 Climbing Denver Center
09:50PM 41.0644 -104.9872 341° North 356 410 26,800 600 Climbing Denver Center
09:51PM 41.1703 -105.0406 339° North 363 418 27,600 780 Climbing Denver Center
09:52PM 41.2603 -105.0844 340° North 361 415 28,500 960 Climbing Denver Center
09:53PM 41.3636 -105.1375 339° North 355 409 29,600 960 Climbing Denver Center
09:54PM 41.4508 -105.1792 340° North 350 403 30,600 960 Climbing Denver Center
09:55PM 41.5503 -105.2289 339° North 342 394 31,700 660 Climbing Denver Center
09:56PM 41.6239 -105.3039 323° Northwest 347 399 32,000 120 Climbing Denver Center
09:57PM 41.7106 -105.3939 322° Northwest 353 406 32,000  Level Denver Center
09:58PM 41.7886 -105.4767 322° Northwest 368 423 32,000  Level Denver Center
09:59PM 41.8792 -105.5769 321° Northwest 377 434 32,000  Level Denver Center
10:00PM 41.9600 -105.6650 321° Northwest 384 442 32,000  Level Denver Center
10:01PM 42.0403 -105.7531 321° Northwest 387 445 32,000  Level Denver Center
10:02PM 42.1333 -105.8556 321° Northwest 386 444 32,000  Level Denver Center
10:03PM 42.2128 -105.9444 320° Northwest 387 445 32,000  Level Denver Center
10:05PM 42.3083 -106.0503 321° Northwest 395 455 32,000  Level Denver Center
10:06PM 42.3894 -106.1408 321° Northwest 395 455 32,000  Level Denver Center
10:07PM 42.4839 -106.2472 320° Northwest 395 455 32,000  Level Denver Center
10:08PM 42.5661 -106.3378 321° Northwest 396 456 32,000  Level Denver Center
10:09PM 42.6614 -106.4450 320° Northwest 399 459 32,000  Level Denver Center
10:10PM 42.7422 -106.5375 320° Northwest 397 457 32,000  Level Denver Center
10:11PM 42.8247 -106.6289 321° Northwest 398 458 32,000  Level Denver Center
10:12PM 42.9194 -106.7378 320° Northwest 400 460 32,000  Level Denver Center
10:13PM 43.0017 -106.8308 320° Northwest 402 463 32,000  Level Denver Center
10:14PM 43.0969 -106.9408 320° Northwest 402 463 32,000  Level Denver Center
10:14PM 43.1369 -106.9883 319° Northwest 397 457 32,000  Level Salt Lake Center
10:15PM 43.2325 -107.0986 320° Northwest 403 464 32,000  Level Salt Lake Center
10:16PM 43.2608 -107.1300 321° Northwest 403 464 32,000  Level Denver Center
10:17PM 43.3564 -107.2414 320° Northwest 403 464 32,000  Level Denver Center
10:17PM 43.4100 -107.3047 319° Northwest 400 460 32,000  Level Salt Lake Center
10:18PM 43.4911 -107.4014 319° Northwest 402 463 32,000  Level Salt Lake Center
10:20PM 43.5725 -107.4956 320° Northwest 402 463 32,000  Level Salt Lake Center
10:21PM 43.6672 -107.6061 320° Northwest 400 460 32,000  Level Salt Lake Center
10:22PM 43.7475 -107.7022 319° Northwest 399 459 32,000 -480 Level Salt Lake Center
10:23PM 43.8431 -107.8144 320° Northwest 402 463 31,100 -1,920 Descending Salt Lake Center
10:24PM 43.9247 -107.9128 319° Northwest 406 467 28,100 -3,120 Descending Salt Lake Center
10:25PM 44.0147 -108.0247 318° Northwest 388 447 24,800 -3,060 Descending Salt Lake Center
10:26PM 44.0803 -108.1256 312° West 368 423 21,900 -2,820 Descending Salt Lake Center
10:27PM 44.1439 -108.2253 312° West 361 415 19,100 -2,520 Descending Salt Lake Center
10:28PM 44.2164 -108.3369 312° West 354 407 16,800 -2,280 Descending Salt Lake Center
10:29PM 44.2814 -108.4367 312° West 355 409 14,500 -2,460 Descending Salt Lake Center
10:30PM 44.3572 -108.5542 312° West 360 414 11,800 -2,160 Descending Salt Lake Center
10:31PM 44.4186 -108.6475 313° West 353 406 10,100 -900 Descending Salt Lake Center
10:32PM 44.4656 -108.7228 311° West 306 352 10,000 -60 Descending Salt Lake Center
10:33PM 44.5131 -108.7981 312° West 251 289 10,000 -540 Level Salt Lake Center
10:34PM 44.5503 -108.8514 314° West 223 257 8,900 -1,620 Descending Salt Lake Center
10:35PM 44.5708 -108.9164 294° West 186 214 6,700 -2,220 Descending Salt Lake Center